sensor_id;sensor_type;location;lat;lon;timestamp;P1;durP1;ratioP1;P2;durP2;ratioP2
9773;SDS011;4926;42.670;23.316;2023-07-28T00:01:54;2.85;;;2.60;;
9773;SDS011;4926;42.670;23.316;2023-07-28T00:04:23;3.90;;;2.45;;
9773;SDS011;4926;42.670;23.316;2023-07-28T00:06:52;3.95;;;2.60;;
9773;SDS011;4926;42.670;23.316;2023-07-28T00:09:19;5.28;;;3.28;;
9773;SDS011;4926;42.670;23.316;2023-07-28T00:11:49;5.07;;;3.00;;
9773;SDS011;4926;42.670;23.316;2023-07-28T00:14:16;3.92;;;3.15;;
9773;SDS011;4926;42.670;23.316;2023-07-28T00:16:45;3.70;;;3.17;;
9773;SDS011;4926;42.670;23.316;2023-07-28T00:19:14;3.38;;;3.08;;
9773;SDS011;4926;42.670;23.316;2023-07-28T00:21:41;3.63;;;2.95;;
9773;SDS011;4926;42.670;23.316;2023-07-28T00:24:08;4.13;;;3.22;;
9773;SDS011;4926;42.670;23.316;2023-07-28T00:26:34;4.55;;;3.45;;
9773;SDS011;4926;42.670;23.316;2023-07-28T00:29:02;5.00;;;3.97;;
9773;SDS011;4926;42.670;23.316;2023-07-28T00:31:31;4.70;;;4.05;;
9773;SDS011;4926;42.670;23.316;2023-07-28T00:33:58;6.47;;;4.68;;
9773;SDS011;4926;42.670;23.316;2023-07-28T00:36:25;4.78;;;4.25;;
9773;SDS011;4926;42.670;23.316;2023-07-28T00:38:52;8.18;;;4.43;;
9773;SDS011;4926;42.670;23.316;2023-07-28T00:41:18;4.10;;;3.78;;
9773;SDS011;4926;42.670;23.316;2023-07-28T00:43:45;4.65;;;3.72;;
9773;SDS011;4926;42.670;23.316;2023-07-28T00:46:14;4.18;;;3.78;;
9773;SDS011;4926;42.670;23.316;2023-07-28T00:48:44;5.07;;;4.53;;
9773;SDS011;4926;42.670;23.316;2023-07-28T00:51:14;4.53;;;3.83;;
9773;SDS011;4926;42.670;23.316;2023-07-28T00:53:43;4.53;;;4.10;;
9773;SDS011;4926;42.670;23.316;2023-07-28T00:56:16;5.10;;;4.00;;
9773;SDS011;4926;42.670;23.316;2023-07-28T00:58:43;5.63;;;4.18;;
9773;SDS011;4926;42.670;23.316;2023-07-28T01:01:17;4.32;;;3.92;;
9773;SDS011;4926;42.670;23.316;2023-07-28T01:03:44;4.20;;;3.80;;
9773;SDS011;4926;42.670;23.316;2023-07-28T01:06:14;4.07;;;3.70;;
9773;SDS011;4926;42.670;23.316;2023-07-28T01:08:52;4.45;;;4.05;;
9773;SDS011;4926;42.670;23.316;2023-07-28T01:11:23;4.53;;;4.13;;
9773;SDS011;4926;42.670;23.316;2023-07-28T01:13:50;6.82;;;4.35;;
9773;SDS011;4926;42.670;23.316;2023-07-28T01:16:18;5.07;;;3.80;;
9773;SDS011;4926;42.670;23.316;2023-07-28T01:18:45;5.00;;;3.70;;
9773;SDS011;4926;42.670;23.316;2023-07-28T01:21:14;5.38;;;4.25;;
9773;SDS011;4926;42.670;23.316;2023-07-28T01:23:48;4.82;;;3.67;;
9773;SDS011;4926;42.670;23.316;2023-07-28T01:26:34;6.65;;;3.90;;
9773;SDS011;4926;42.670;23.316;2023-07-28T01:29:05;4.43;;;4.03;;
9773;SDS011;4926;42.670;23.316;2023-07-28T01:31:33;4.60;;;4.20;;
9773;SDS011;4926;42.670;23.316;2023-07-28T01:34:08;5.43;;;4.20;;
9773;SDS011;4926;42.670;23.316;2023-07-28T01:36:35;4.97;;;4.55;;
9773;SDS011;4926;42.670;23.316;2023-07-28T01:39:04;4.95;;;4.18;;
9773;SDS011;4926;42.670;23.316;2023-07-28T01:41:35;5.05;;;4.05;;
9773;SDS011;4926;42.670;23.316;2023-07-28T01:44:04;8.00;;;4.43;;
9773;SDS011;4926;42.670;23.316;2023-07-28T01:46:31;5.47;;;4.32;;
9773;SDS011;4926;42.670;23.316;2023-07-28T01:48:58;5.30;;;4.78;;
9773;SDS011;4926;42.670;23.316;2023-07-28T01:51:24;5.35;;;4.43;;
9773;SDS011;4926;42.670;23.316;2023-07-28T01:53:53;5.05;;;4.63;;
9773;SDS011;4926;42.670;23.316;2023-07-28T01:56:21;6.90;;;4.57;;
9773;SDS011;4926;42.670;23.316;2023-07-28T01:58:50;5.63;;;4.13;;
9773;SDS011;4926;42.670;23.316;2023-07-28T02:01:17;4.45;;;3.80;;
9773;SDS011;4926;42.670;23.316;2023-07-28T02:03:47;4.90;;;4.07;;
9773;SDS011;4926;42.670;23.316;2023-07-28T02:06:17;5.97;;;4.20;;
9773;SDS011;4926;42.670;23.316;2023-07-28T02:08:43;6.13;;;4.80;;
9773;SDS011;4926;42.670;23.316;2023-07-28T02:11:10;6.38;;;4.85;;
9773;SDS011;4926;42.670;23.316;2023-07-28T02:13:42;5.18;;;4.47;;
9773;SDS011;4926;42.670;23.316;2023-07-28T02:16:10;5.18;;;4.40;;
9773;SDS011;4926;42.670;23.316;2023-07-28T02:18:38;4.82;;;4.10;;
9773;SDS011;4926;42.670;23.316;2023-07-28T02:21:05;4.25;;;3.22;;
9773;SDS011;4926;42.670;23.316;2023-07-28T02:23:34;6.40;;;3.40;;
9773;SDS011;4926;42.670;23.316;2023-07-28T02:26:03;4.35;;;3.13;;
9773;SDS011;4926;42.670;23.316;2023-07-28T02:28:29;5.20;;;3.45;;
9773;SDS011;4926;42.670;23.316;2023-07-28T02:30:59;4.03;;;2.92;;
9773;SDS011;4926;42.670;23.316;2023-07-28T02:33:34;3.70;;;3.38;;
9773;SDS011;4926;42.670;23.316;2023-07-28T02:36:04;3.50;;;3.20;;
9773;SDS011;4926;42.670;23.316;2023-07-28T02:38:34;4.05;;;2.97;;
9773;SDS011;4926;42.670;23.316;2023-07-28T02:41:00;3.95;;;3.55;;
9773;SDS011;4926;42.670;23.316;2023-07-28T02:46:15;5.13;;;3.13;;
9773;SDS011;4926;42.670;23.316;2023-07-28T02:48:43;7.45;;;3.72;;
9773;SDS011;4926;42.670;23.316;2023-07-28T02:51:10;3.30;;;3.00;;
9773;SDS011;4926;42.670;23.316;2023-07-28T02:53:37;4.07;;;3.13;;
9773;SDS011;4926;42.670;23.316;2023-07-28T02:56:03;3.92;;;3.28;;
9773;SDS011;4926;42.670;23.316;2023-07-28T02:58:32;4.30;;;3.22;;
9773;SDS011;4926;42.670;23.316;2023-07-28T03:00:59;3.35;;;3.05;;
9773;SDS011;4926;42.670;23.316;2023-07-28T03:03:26;4.47;;;3.20;;
9773;SDS011;4926;42.670;23.316;2023-07-28T03:05:54;5.15;;;3.47;;
9773;SDS011;4926;42.670;23.316;2023-07-28T03:08:21;3.78;;;3.15;;
9773;SDS011;4926;42.670;23.316;2023-07-28T03:10:47;3.60;;;3.30;;
9773;SDS011;4926;42.670;23.316;2023-07-28T03:13:14;4.55;;;3.38;;
9773;SDS011;4926;42.670;23.316;2023-07-28T03:15:41;4.20;;;3.15;;
9773;SDS011;4926;42.670;23.316;2023-07-28T03:18:07;3.15;;;2.80;;
9773;SDS011;4926;42.670;23.316;2023-07-28T03:20:38;4.82;;;3.20;;
9773;SDS011;4926;42.670;23.316;2023-07-28T03:23:06;5.43;;;3.15;;
9773;SDS011;4926;42.670;23.316;2023-07-28T03:25:33;4.22;;;3.13;;
9773;SDS011;4926;42.670;23.316;2023-07-28T03:27:59;4.72;;;3.03;;
9773;SDS011;4926;42.670;23.316;2023-07-28T03:30:26;3.67;;;2.92;;
9773;SDS011;4926;42.670;23.316;2023-07-28T03:32:53;4.57;;;3.20;;
9773;SDS011;4926;42.670;23.316;2023-07-28T03:35:20;3.38;;;3.03;;
9773;SDS011;4926;42.670;23.316;2023-07-28T03:37:47;3.92;;;3.63;;
9773;SDS011;4926;42.670;23.316;2023-07-28T03:40:19;8.73;;;6.30;;
9773;SDS011;4926;42.670;23.316;2023-07-28T03:42:46;7.75;;;6.88;;
9773;SDS011;4926;42.670;23.316;2023-07-28T03:45:16;9.60;;;8.55;;
9773;SDS011;4926;42.670;23.316;2023-07-28T03:47:42;9.10;;;7.57;;
9773;SDS011;4926;42.670;23.316;2023-07-28T03:50:09;10.40;;;6.97;;
9773;SDS011;4926;42.670;23.316;2023-07-28T03:52:36;7.40;;;5.10;;
9773;SDS011;4926;42.670;23.316;2023-07-28T03:55:03;5.30;;;4.80;;
9773;SDS011;4926;42.670;23.316;2023-07-28T03:57:33;5.18;;;4.68;;
9773;SDS011;4926;42.670;23.316;2023-07-28T04:00:02;7.05;;;4.40;;
9773;SDS011;4926;42.670;23.316;2023-07-28T04:02:30;7.80;;;4.47;;
9773;SDS011;4926;42.670;23.316;2023-07-28T04:05:02;6.22;;;3.90;;
9773;SDS011;4926;42.670;23.316;2023-07-28T04:07:29;4.85;;;4.15;;
9773;SDS011;4926;42.670;23.316;2023-07-28T04:09:56;4.57;;;4.18;;
9773;SDS011;4926;42.670;23.316;2023-07-28T04:12:22;7.10;;;3.92;;
9773;SDS011;4926;42.670;23.316;2023-07-28T04:14:50;6.13;;;4.20;;
9773;SDS011;4926;42.670;23.316;2023-07-28T04:17:19;6.53;;;4.30;;
9773;SDS011;4926;42.670;23.316;2023-07-28T04:19:45;5.32;;;4.22;;
9773;SDS011;4926;42.670;23.316;2023-07-28T04:22:12;7.55;;;4.50;;
9773;SDS011;4926;42.670;23.316;2023-07-28T04:24:41;4.18;;;3.78;;
9773;SDS011;4926;42.670;23.316;2023-07-28T04:27:08;4.22;;;3.55;;
9773;SDS011;4926;42.670;23.316;2023-07-28T04:29:36;4.72;;;3.83;;
9773;SDS011;4926;42.670;23.316;2023-07-28T04:32:05;6.20;;;3.88;;
9773;SDS011;4926;42.670;23.316;2023-07-28T04:34:35;4.88;;;4.30;;
9773;SDS011;4926;42.670;23.316;2023-07-28T04:37:02;5.78;;;4.13;;
9773;SDS011;4926;42.670;23.316;2023-07-28T04:39:29;5.45;;;4.00;;
9773;SDS011;4926;42.670;23.316;2023-07-28T04:41:55;5.68;;;3.65;;
9773;SDS011;4926;42.670;23.316;2023-07-28T04:44:22;5.10;;;4.15;;
9773;SDS011;4926;42.670;23.316;2023-07-28T04:46:50;6.82;;;4.18;;
9773;SDS011;4926;42.670;23.316;2023-07-28T04:49:19;4.60;;;4.10;;
9773;SDS011;4926;42.670;23.316;2023-07-28T04:51:47;9.05;;;4.20;;
9773;SDS011;4926;42.670;23.316;2023-07-28T04:54:13;6.15;;;4.20;;
9773;SDS011;4926;42.670;23.316;2023-07-28T04:56:40;6.38;;;4.30;;
9773;SDS011;4926;42.670;23.316;2023-07-28T04:59:10;11.20;;;4.93;;
9773;SDS011;4926;42.670;23.316;2023-07-28T05:01:38;6.95;;;4.50;;
9773;SDS011;4926;42.670;23.316;2023-07-28T05:04:05;8.05;;;5.07;;
9773;SDS011;4926;42.670;23.316;2023-07-28T05:06:35;7.25;;;4.68;;
9773;SDS011;4926;42.670;23.316;2023-07-28T05:09:04;10.60;;;5.50;;
9773;SDS011;4926;42.670;23.316;2023-07-28T05:11:30;7.38;;;5.13;;
9773;SDS011;4926;42.670;23.316;2023-07-28T05:14:00;5.15;;;4.65;;
9773;SDS011;4926;42.670;23.316;2023-07-28T05:16:26;5.93;;;4.75;;
9773;SDS011;4926;42.670;23.316;2023-07-28T05:18:55;6.30;;;4.63;;
9773;SDS011;4926;42.670;23.316;2023-07-28T05:21:22;8.05;;;5.00;;
9773;SDS011;4926;42.670;23.316;2023-07-28T05:23:51;9.52;;;5.13;;
9773;SDS011;4926;42.670;23.316;2023-07-28T05:26:18;9.60;;;4.85;;
9773;SDS011;4926;42.670;23.316;2023-07-28T05:28:45;6.63;;;4.85;;
9773;SDS011;4926;42.670;23.316;2023-07-28T05:31:11;5.82;;;4.88;;
9773;SDS011;4926;42.670;23.316;2023-07-28T05:33:40;6.30;;;4.63;;
9773;SDS011;4926;42.670;23.316;2023-07-28T05:36:07;6.60;;;4.90;;
9773;SDS011;4926;42.670;23.316;2023-07-28T05:38:34;12.25;;;7.07;;
9773;SDS011;4926;42.670;23.316;2023-07-28T05:41:02;7.35;;;5.10;;
9773;SDS011;4926;42.670;23.316;2023-07-28T05:43:30;9.75;;;5.13;;
9773;SDS011;4926;42.670;23.316;2023-07-28T05:45:57;5.38;;;4.22;;
9773;SDS011;4926;42.670;23.316;2023-07-28T05:48:24;6.55;;;4.25;;
9773;SDS011;4926;42.670;23.316;2023-07-28T05:50:53;6.65;;;4.57;;
9773;SDS011;4926;42.670;23.316;2023-07-28T05:53:20;5.00;;;4.47;;
9773;SDS011;4926;42.670;23.316;2023-07-28T05:55:47;7.50;;;4.85;;
9773;SDS011;4926;42.670;23.316;2023-07-28T05:58:18;7.22;;;4.28;;
9773;SDS011;4926;42.670;23.316;2023-07-28T06:00:50;6.93;;;5.03;;
9773;SDS011;4926;42.670;23.316;2023-07-28T06:03:16;6.20;;;4.63;;
9773;SDS011;4926;42.670;23.316;2023-07-28T06:05:45;5.95;;;4.35;;
9773;SDS011;4926;42.670;23.316;2023-07-28T06:08:12;9.50;;;5.07;;
9773;SDS011;4926;42.670;23.316;2023-07-28T06:10:39;7.10;;;5.07;;
9773;SDS011;4926;42.670;23.316;2023-07-28T06:13:05;7.65;;;5.40;;
9773;SDS011;4926;42.670;23.316;2023-07-28T06:15:33;7.40;;;5.32;;
9773;SDS011;4926;42.670;23.316;2023-07-28T06:18:01;6.47;;;5.50;;
9773;SDS011;4926;42.670;23.316;2023-07-28T06:20:28;6.07;;;5.20;;
9773;SDS011;4926;42.670;23.316;2023-07-28T06:22:55;9.90;;;5.15;;
9773;SDS011;4926;42.670;23.316;2023-07-28T06:25:22;9.55;;;5.22;;
9773;SDS011;4926;42.670;23.316;2023-07-28T06:27:48;7.70;;;5.53;;
9773;SDS011;4926;42.670;23.316;2023-07-28T06:30:15;7.47;;;5.20;;
9773;SDS011;4926;42.670;23.316;2023-07-28T06:32:44;7.28;;;5.40;;
9773;SDS011;4926;42.670;23.316;2023-07-28T06:35:11;8.48;;;5.30;;
9773;SDS011;4926;42.670;23.316;2023-07-28T06:37:43;6.90;;;5.63;;
9773;SDS011;4926;42.670;23.316;2023-07-28T06:40:10;7.97;;;5.85;;
9773;SDS011;4926;42.670;23.316;2023-07-28T06:42:37;7.72;;;5.88;;
9773;SDS011;4926;42.670;23.316;2023-07-28T06:45:04;8.45;;;5.25;;
9773;SDS011;4926;42.670;23.316;2023-07-28T06:47:31;10.38;;;5.60;;
9773;SDS011;4926;42.670;23.316;2023-07-28T06:49:59;11.90;;;5.35;;
9773;SDS011;4926;42.670;23.316;2023-07-28T06:52:26;7.57;;;4.80;;
9773;SDS011;4926;42.670;23.316;2023-07-28T06:54:53;12.23;;;5.50;;
9773;SDS011;4926;42.670;23.316;2023-07-28T06:57:20;6.25;;;5.00;;
9773;SDS011;4926;42.670;23.316;2023-07-28T06:59:46;9.18;;;4.35;;
9773;SDS011;4926;42.670;23.316;2023-07-28T07:02:15;9.40;;;5.00;;
9773;SDS011;4926;42.670;23.316;2023-07-28T07:04:43;7.85;;;5.00;;
9773;SDS011;4926;42.670;23.316;2023-07-28T07:07:14;6.22;;;4.68;;
9773;SDS011;4926;42.670;23.316;2023-07-28T07:09:40;14.15;;;8.98;;
9773;SDS011;4926;42.670;23.316;2023-07-28T07:12:08;8.73;;;6.25;;
9773;SDS011;4926;42.670;23.316;2023-07-28T07:14:35;5.78;;;4.63;;
9773;SDS011;4926;42.670;23.316;2023-07-28T07:17:02;11.00;;;4.45;;
9773;SDS011;4926;42.670;23.316;2023-07-28T07:19:29;6.13;;;4.13;;
9773;SDS011;4926;42.670;23.316;2023-07-28T07:21:56;6.63;;;3.72;;
9773;SDS011;4926;42.670;23.316;2023-07-28T07:24:26;9.15;;;4.28;;
9773;SDS011;4926;42.670;23.316;2023-07-28T07:26:53;6.68;;;4.25;;
9773;SDS011;4926;42.670;23.316;2023-07-28T07:29:19;5.63;;;3.83;;
9773;SDS011;4926;42.670;23.316;2023-07-28T07:31:46;5.43;;;3.95;;
9773;SDS011;4926;42.670;23.316;2023-07-28T07:34:13;7.28;;;4.20;;
9773;SDS011;4926;42.670;23.316;2023-07-28T07:36:39;5.50;;;3.70;;
9773;SDS011;4926;42.670;23.316;2023-07-28T07:39:06;8.30;;;4.35;;
9773;SDS011;4926;42.670;23.316;2023-07-28T07:41:35;7.80;;;4.40;;
9773;SDS011;4926;42.670;23.316;2023-07-28T07:44:05;5.20;;;4.15;;
9773;SDS011;4926;42.670;23.316;2023-07-28T07:46:31;6.55;;;4.10;;
9773;SDS011;4926;42.670;23.316;2023-07-28T07:49:00;7.40;;;4.00;;
9773;SDS011;4926;42.670;23.316;2023-07-28T07:51:26;5.35;;;3.80;;
9773;SDS011;4926;42.670;23.316;2023-07-28T07:53:56;5.45;;;3.47;;
9773;SDS011;4926;42.670;23.316;2023-07-28T07:56:23;8.70;;;3.50;;
9773;SDS011;4926;42.670;23.316;2023-07-28T07:58:51;3.78;;;3.33;;
9773;SDS011;4926;42.670;23.316;2023-07-28T08:01:18;8.70;;;3.85;;
9773;SDS011;4926;42.670;23.316;2023-07-28T08:03:44;8.10;;;3.67;;
9773;SDS011;4926;42.670;23.316;2023-07-28T08:06:14;5.10;;;3.58;;
9773;SDS011;4926;42.670;23.316;2023-07-28T08:08:43;6.78;;;3.60;;
9773;SDS011;4926;42.670;23.316;2023-07-28T08:11:10;7.13;;;3.90;;
9773;SDS011;4926;42.670;23.316;2023-07-28T08:13:43;4.55;;;3.67;;
9773;SDS011;4926;42.670;23.316;2023-07-28T08:16:14;7.70;;;4.05;;
9773;SDS011;4926;42.670;23.316;2023-07-28T08:18:41;9.20;;;3.70;;
9773;SDS011;4926;42.670;23.316;2023-07-28T08:21:09;7.15;;;3.28;;
9773;SDS011;4926;42.670;23.316;2023-07-28T08:23:36;4.00;;;3.40;;
9773;SDS011;4926;42.670;23.316;2023-07-28T08:26:03;4.20;;;3.45;;
9773;SDS011;4926;42.670;23.316;2023-07-28T08:28:29;5.75;;;3.60;;
9773;SDS011;4926;42.670;23.316;2023-07-28T08:30:57;6.90;;;3.85;;
9773;SDS011;4926;42.670;23.316;2023-07-28T08:33:26;8.18;;;4.20;;
9773;SDS011;4926;42.670;23.316;2023-07-28T08:35:52;5.30;;;3.35;;
9773;SDS011;4926;42.670;23.316;2023-07-28T08:38:19;5.95;;;3.38;;
9773;SDS011;4926;42.670;23.316;2023-07-28T08:40:46;4.93;;;2.85;;
9773;SDS011;4926;42.670;23.316;2023-07-28T08:43:12;5.50;;;3.67;;
9773;SDS011;4926;42.670;23.316;2023-07-28T08:45:39;3.92;;;3.53;;
9773;SDS011;4926;42.670;23.316;2023-07-28T08:48:06;4.53;;;3.60;;
9773;SDS011;4926;42.670;23.316;2023-07-28T08:50:34;4.45;;;3.15;;
9773;SDS011;4926;42.670;23.316;2023-07-28T08:53:01;6.13;;;3.78;;
9773;SDS011;4926;42.670;23.316;2023-07-28T08:55:28;6.15;;;3.45;;
9773;SDS011;4926;42.670;23.316;2023-07-28T08:57:55;9.48;;;3.42;;
9773;SDS011;4926;42.670;23.316;2023-07-28T09:00:21;7.53;;;3.60;;
9773;SDS011;4926;42.670;23.316;2023-07-28T09:02:50;7.55;;;3.40;;
9773;SDS011;4926;42.670;23.316;2023-07-28T09:05:17;4.85;;;3.35;;
9773;SDS011;4926;42.670;23.316;2023-07-28T09:07:53;7.15;;;3.08;;
9773;SDS011;4926;42.670;23.316;2023-07-28T09:10:20;7.57;;;3.53;;
9773;SDS011;4926;42.670;23.316;2023-07-28T09:12:47;5.15;;;3.10;;
9773;SDS011;4926;42.670;23.316;2023-07-28T09:15:14;5.07;;;3.10;;
9773;SDS011;4926;42.670;23.316;2023-07-28T09:17:42;4.63;;;3.38;;
9773;SDS011;4926;42.670;23.316;2023-07-28T09:20:12;5.50;;;2.85;;
9773;SDS011;4926;42.670;23.316;2023-07-28T09:22:40;4.55;;;3.08;;
9773;SDS011;4926;42.670;23.316;2023-07-28T09:25:17;5.22;;;3.15;;
9773;SDS011;4926;42.670;23.316;2023-07-28T09:27:50;4.55;;;3.42;;
9773;SDS011;4926;42.670;23.316;2023-07-28T09:30:18;3.47;;;2.80;;
9773;SDS011;4926;42.670;23.316;2023-07-28T09:32:46;3.78;;;2.95;;
9773;SDS011;4926;42.670;23.316;2023-07-28T09:35:14;4.65;;;3.28;;
9773;SDS011;4926;42.670;23.316;2023-07-28T09:37:41;6.03;;;3.10;;
9773;SDS011;4926;42.670;23.316;2023-07-28T09:40:10;10.50;;;3.28;;
9773;SDS011;4926;42.670;23.316;2023-07-28T09:42:39;7.38;;;3.33;;
9773;SDS011;4926;42.670;23.316;2023-07-28T09:45:15;4.15;;;3.00;;
9773;SDS011;4926;42.670;23.316;2023-07-28T09:47:45;6.97;;;2.95;;
9773;SDS011;4926;42.670;23.316;2023-07-28T09:50:14;3.97;;;2.80;;
9773;SDS011;4926;42.670;23.316;2023-07-28T09:52:43;4.15;;;2.88;;
9773;SDS011;4926;42.670;23.316;2023-07-28T09:55:13;5.63;;;3.10;;
9773;SDS011;4926;42.670;23.316;2023-07-28T09:57:43;6.13;;;3.10;;
9773;SDS011;4926;42.670;23.316;2023-07-28T10:00:13;3.58;;;2.90;;
9773;SDS011;4926;42.670;23.316;2023-07-28T10:02:42;3.33;;;2.90;;
9773;SDS011;4926;42.670;23.316;2023-07-28T10:05:09;3.00;;;2.70;;
9773;SDS011;4926;42.670;23.316;2023-07-28T10:07:37;3.47;;;2.78;;
9773;SDS011;4926;42.670;23.316;2023-07-28T10:10:06;5.38;;;3.22;;
9773;SDS011;4926;42.670;23.316;2023-07-28T10:12:39;4.07;;;3.10;;
9773;SDS011;4926;42.670;23.316;2023-07-28T10:15:11;5.05;;;2.70;;
9773;SDS011;4926;42.670;23.316;2023-07-28T10:17:41;3.28;;;2.97;;
9773;SDS011;4926;42.670;23.316;2023-07-28T10:23:03;5.28;;;4.20;;
9773;SDS011;4926;42.670;23.316;2023-07-28T10:25:34;4.97;;;3.40;;
9773;SDS011;4926;42.670;23.316;2023-07-28T10:28:03;11.90;;;8.93;;
9773;SDS011;4926;42.670;23.316;2023-07-28T10:30:38;6.03;;;3.58;;
9773;SDS011;4926;42.670;23.316;2023-07-28T10:33:25;4.90;;;3.60;;
9773;SDS011;4926;42.670;23.316;2023-07-28T10:35:53;7.25;;;3.47;;
9773;SDS011;4926;42.670;23.316;2023-07-28T10:38:30;5.75;;;3.25;;
9773;SDS011;4926;42.670;23.316;2023-07-28T10:41:08;3.63;;;3.10;;
9773;SDS011;4926;42.670;23.316;2023-07-28T10:43:39;9.20;;;3.05;;
9773;SDS011;4926;42.670;23.316;2023-07-28T10:46:11;7.38;;;3.58;;
9773;SDS011;4926;42.670;23.316;2023-07-28T10:48:44;15.60;;;5.53;;
9773;SDS011;4926;42.670;23.316;2023-07-28T10:51:12;4.35;;;3.30;;
9773;SDS011;4926;42.670;23.316;2023-07-28T10:53:45;3.90;;;3.08;;
9773;SDS011;4926;42.670;23.316;2023-07-28T10:56:15;3.95;;;2.92;;
9773;SDS011;4926;42.670;23.316;2023-07-28T10:58:42;11.70;;;4.10;;
9773;SDS011;4926;42.670;23.316;2023-07-28T11:01:11;7.35;;;3.22;;
9773;SDS011;4926;42.670;23.316;2023-07-28T11:03:41;10.55;;;3.45;;
9773;SDS011;4926;42.670;23.316;2023-07-28T11:06:09;4.10;;;3.28;;
9773;SDS011;4926;42.670;23.316;2023-07-28T11:08:37;6.45;;;2.88;;
9773;SDS011;4926;42.670;23.316;2023-07-28T11:11:04;4.53;;;2.80;;
9773;SDS011;4926;42.670;23.316;2023-07-28T11:13:32;4.93;;;3.17;;
9773;SDS011;4926;42.670;23.316;2023-07-28T11:16:02;4.25;;;2.90;;
9773;SDS011;4926;42.670;23.316;2023-07-28T11:18:32;4.28;;;3.50;;
9773;SDS011;4926;42.670;23.316;2023-07-28T11:21:00;3.95;;;2.90;;
9773;SDS011;4926;42.670;23.316;2023-07-28T11:23:38;2.92;;;2.60;;
9773;SDS011;4926;42.670;23.316;2023-07-28T11:26:05;6.05;;;3.20;;
9773;SDS011;4926;42.670;23.316;2023-07-28T11:28:36;5.30;;;3.00;;
9773;SDS011;4926;42.670;23.316;2023-07-28T11:31:04;3.90;;;3.05;;
9773;SDS011;4926;42.670;23.316;2023-07-28T11:33:33;4.20;;;3.60;;
9773;SDS011;4926;42.670;23.316;2023-07-28T11:36:01;4.93;;;3.10;;
9773;SDS011;4926;42.670;23.316;2023-07-28T11:38:31;6.18;;;2.70;;
9773;SDS011;4926;42.670;23.316;2023-07-28T11:41:01;3.03;;;2.47;;
9773;SDS011;4926;42.670;23.316;2023-07-28T11:43:29;3.10;;;2.60;;
9773;SDS011;4926;42.670;23.316;2023-07-28T11:46:00;4.35;;;2.85;;
9773;SDS011;4926;42.670;23.316;2023-07-28T11:48:29;3.00;;;2.80;;
9773;SDS011;4926;42.670;23.316;2023-07-28T11:50:58;3.25;;;2.72;;
9773;SDS011;4926;42.670;23.316;2023-07-28T11:53:28;2.85;;;2.65;;
9773;SDS011;4926;42.670;23.316;2023-07-28T11:55:59;4.00;;;2.95;;
9773;SDS011;4926;42.670;23.316;2023-07-28T11:58:27;3.35;;;2.88;;
9773;SDS011;4926;42.670;23.316;2023-07-28T12:00:57;4.43;;;2.90;;
9773;SDS011;4926;42.670;23.316;2023-07-28T12:03:29;3.53;;;2.80;;
9773;SDS011;4926;42.670;23.316;2023-07-28T12:06:01;3.28;;;2.80;;
9773;SDS011;4926;42.670;23.316;2023-07-28T12:08:34;3.28;;;2.97;;
9773;SDS011;4926;42.670;23.316;2023-07-28T12:11:01;4.15;;;2.80;;
9773;SDS011;4926;42.670;23.316;2023-07-28T12:13:28;2.83;;;2.63;;
9773;SDS011;4926;42.670;23.316;2023-07-28T12:15:54;3.92;;;2.80;;
9773;SDS011;4926;42.670;23.316;2023-07-28T12:18:21;2.50;;;2.30;;
9773;SDS011;4926;42.670;23.316;2023-07-28T12:20:48;3.25;;;2.92;;
9773;SDS011;4926;42.670;23.316;2023-07-28T12:23:20;3.85;;;2.72;;
9773;SDS011;4926;42.670;23.316;2023-07-28T12:25:48;4.05;;;2.90;;
9773;SDS011;4926;42.670;23.316;2023-07-28T12:28:16;4.68;;;3.10;;
9773;SDS011;4926;42.670;23.316;2023-07-28T12:30:42;4.10;;;2.72;;
9773;SDS011;4926;42.670;23.316;2023-07-28T12:33:09;4.60;;;2.83;;
9773;SDS011;4926;42.670;23.316;2023-07-28T12:35:36;5.55;;;2.97;;
9773;SDS011;4926;42.670;23.316;2023-07-28T12:38:05;2.90;;;2.70;;
9773;SDS011;4926;42.670;23.316;2023-07-28T12:40:44;2.90;;;2.70;;
9773;SDS011;4926;42.670;23.316;2023-07-28T12:43:11;3.13;;;2.60;;
9773;SDS011;4926;42.670;23.316;2023-07-28T12:45:38;4.05;;;2.47;;
9773;SDS011;4926;42.670;23.316;2023-07-28T12:48:06;4.13;;;2.70;;
9773;SDS011;4926;42.670;23.316;2023-07-28T12:50:33;7.05;;;2.95;;
9773;SDS011;4926;42.670;23.316;2023-07-28T12:53:00;5.00;;;2.83;;
9773;SDS011;4926;42.670;23.316;2023-07-28T12:55:28;3.10;;;2.80;;
9773;SDS011;4926;42.670;23.316;2023-07-28T12:57:57;3.03;;;2.72;;
9773;SDS011;4926;42.670;23.316;2023-07-28T13:00:25;3.35;;;2.65;;
9773;SDS011;4926;42.670;23.316;2023-07-28T13:02:54;7.80;;;3.35;;
9773;SDS011;4926;42.670;23.316;2023-07-28T13:05:21;3.28;;;2.50;;
9773;SDS011;4926;42.670;23.316;2023-07-28T13:07:48;4.45;;;2.70;;
9773;SDS011;4926;42.670;23.316;2023-07-28T13:10:17;3.00;;;2.80;;
9773;SDS011;4926;42.670;23.316;2023-07-28T13:12:44;3.08;;;2.80;;
9773;SDS011;4926;42.670;23.316;2023-07-28T13:15:17;2.92;;;2.58;;
9773;SDS011;4926;42.670;23.316;2023-07-28T13:17:43;4.22;;;2.50;;
9773;SDS011;4926;42.670;23.316;2023-07-28T13:20:10;4.10;;;2.65;;
9773;SDS011;4926;42.670;23.316;2023-07-28T13:22:37;2.60;;;2.40;;
9773;SDS011;4926;42.670;23.316;2023-07-28T13:25:04;3.05;;;2.60;;
9773;SDS011;4926;42.670;23.316;2023-07-28T13:27:34;2.78;;;2.50;;
9773;SDS011;4926;42.670;23.316;2023-07-28T13:30:00;3.10;;;2.72;;
9773;SDS011;4926;42.670;23.316;2023-07-28T13:32:31;4.50;;;3.20;;
9773;SDS011;4926;42.670;23.316;2023-07-28T13:35:01;4.70;;;2.90;;
9773;SDS011;4926;42.670;23.316;2023-07-28T13:37:27;2.63;;;2.42;;
9773;SDS011;4926;42.670;23.316;2023-07-28T13:39:57;3.63;;;3.00;;
9773;SDS011;4926;42.670;23.316;2023-07-28T13:42:26;5.93;;;3.10;;
9773;SDS011;4926;42.670;23.316;2023-07-28T13:44:53;3.13;;;2.83;;
9773;SDS011;4926;42.670;23.316;2023-07-28T13:47:22;2.85;;;2.63;;
9773;SDS011;4926;42.670;23.316;2023-07-28T13:49:50;6.22;;;2.28;;
9773;SDS011;4926;42.670;23.316;2023-07-28T13:52:17;3.75;;;3.28;;
9773;SDS011;4926;42.670;23.316;2023-07-28T13:54:44;3.00;;;2.70;;
9773;SDS011;4926;42.670;23.316;2023-07-28T13:57:10;3.70;;;2.60;;
9773;SDS011;4926;42.670;23.316;2023-07-28T13:59:39;2.70;;;2.50;;
9773;SDS011;4926;42.670;23.316;2023-07-28T14:02:06;3.17;;;2.88;;
9773;SDS011;4926;42.670;23.316;2023-07-28T14:04:34;3.40;;;2.58;;
9773;SDS011;4926;42.670;23.316;2023-07-28T14:07:02;2.85;;;2.65;;
9773;SDS011;4926;42.670;23.316;2023-07-28T14:09:29;6.80;;;2.70;;
9773;SDS011;4926;42.670;23.316;2023-07-28T14:11:56;2.80;;;2.60;;
9773;SDS011;4926;42.670;23.316;2023-07-28T14:14:24;4.63;;;3.22;;
9773;SDS011;4926;42.670;23.316;2023-07-28T14:16:50;3.00;;;2.70;;
9773;SDS011;4926;42.670;23.316;2023-07-28T14:19:17;3.08;;;2.72;;
9773;SDS011;4926;42.670;23.316;2023-07-28T14:21:44;4.80;;;3.28;;
9773;SDS011;4926;42.670;23.316;2023-07-28T14:24:12;4.53;;;3.10;;
9773;SDS011;4926;42.670;23.316;2023-07-28T14:26:38;3.78;;;3.10;;
9773;SDS011;4926;42.670;23.316;2023-07-28T14:29:08;4.30;;;2.75;;
9773;SDS011;4926;42.670;23.316;2023-07-28T14:31:35;3.70;;;3.40;;
9773;SDS011;4926;42.670;23.316;2023-07-28T14:34:02;3.47;;;3.00;;
9773;SDS011;4926;42.670;23.316;2023-07-28T14:36:28;3.22;;;2.72;;
9773;SDS011;4926;42.670;23.316;2023-07-28T14:38:55;4.57;;;3.08;;
9773;SDS011;4926;42.670;23.316;2023-07-28T14:41:26;3.13;;;2.88;;
9773;SDS011;4926;42.670;23.316;2023-07-28T14:43:56;6.63;;;2.72;;
9773;SDS011;4926;42.670;23.316;2023-07-28T14:46:24;6.65;;;3.10;;
9773;SDS011;4926;42.670;23.316;2023-07-28T14:48:51;5.07;;;2.97;;
9773;SDS011;4926;42.670;23.316;2023-07-28T14:51:17;3.55;;;2.95;;
9773;SDS011;4926;42.670;23.316;2023-07-28T14:53:46;4.72;;;3.28;;
9773;SDS011;4926;42.670;23.316;2023-07-28T14:56:13;3.15;;;2.85;;
9773;SDS011;4926;42.670;23.316;2023-07-28T14:58:44;3.28;;;2.67;;
9773;SDS011;4926;42.670;23.316;2023-07-28T15:01:14;3.47;;;3.17;;
9773;SDS011;4926;42.670;23.316;2023-07-28T15:03:41;3.42;;;3.13;;
9773;SDS011;4926;42.670;23.316;2023-07-28T15:06:08;4.47;;;2.88;;
9773;SDS011;4926;42.670;23.316;2023-07-28T15:08:37;3.58;;;2.90;;
9773;SDS011;4926;42.670;23.316;2023-07-28T15:11:04;4.07;;;3.10;;
9773;SDS011;4926;42.670;23.316;2023-07-28T15:13:30;4.22;;;2.70;;